Time;durP1;ratioP1;P1;durP2;ratioP2;P2;SDS_P1;SDS_P2;PMS_P1;PMS_P2;Temp;Humidity;BMP_temperature;BMP_pressure;BME280_temperature;BME280_humidity;BME280_pressure;Samples;Min_cycle;Max_cycle;Signal;HPM_P1;HPM_P2
2023/10/09 00:01:28;;;;;;;0.47;0.47;;;16.70;58.10;;;;;;5141622;27;20504;-66
2023/10/09 00:03:54;;;;;;;0.40;0.40;;;16.70;58.20;;;;;;5153795;27;20065;-68
2023/10/09 00:06:37;;;;;;;0.40;0.40;;;16.70;58.30;;;;;;5156359;27;20382;-68
2023/10/09 00:11:48;;;;;;;0.40;0.40;;;16.80;58.30;;;;;;5153347;27;20402;-68
2023/10/09 00:14:15;;;;;;;0.40;0.40;;;16.80;58.40;;;;;;5150333;27;20027;-68
2023/10/09 00:16:48;;;;;;;0.50;0.50;;;16.80;58.60;;;;;;5155721;27;20058;-68
2023/10/09 00:19:19;;;;;;;0.38;0.38;;;16.90;58.70;;;;;;5154965;27;20011;-68
2023/10/09 00:21:46;;;;;;;0.40;0.40;;;16.80;58.70;;;;;;5155549;27;20443;-69
2023/10/09 00:24:24;;;;;;;0.50;0.50;;;16.80;58.70;;;;;;5138356;27;20097;-67
2023/10/09 00:27:01;;;;;;;0.40;0.40;;;16.70;58.60;;;;;;5152158;27;20056;-66
2023/10/09 00:29:34;;;;;;;0.40;0.40;;;16.70;58.60;;;;;;5147708;27;20027;-67
2023/10/09 00:32:13;;;;;;;0.50;0.50;;;16.60;58.50;;;;;;5169140;27;20103;-66
2023/10/09 00:34:42;;;;;;;0.68;0.68;;;16.50;58.60;;;;;;5154736;27;20022;-67
2023/10/09 00:37:16;;;;;;;0.40;0.40;;;16.50;58.80;;;;;;5141801;27;20549;-67
2023/10/09 00:39:48;;;;;;;2.58;0.60;;;16.40;59.10;;;;;;5143603;27;20468;-67
2023/10/09 00:42:21;;;;;;;0.40;0.40;;;16.50;59.30;;;;;;5138696;27;20237;-68
2023/10/09 00:44:48;;;;;;;0.73;0.60;;;16.50;59.50;;;;;;5145082;27;20040;-67
2023/10/09 00:47:33;;;;;;;3.50;0.63;;;16.50;59.50;;;;;;5155766;27;20027;-67
2023/10/09 00:50:01;;;;;;;0.60;0.60;;;16.50;59.40;;;;;;5154911;27;20019;-67
2023/10/09 00:53:01;;;;;;;0.40;0.40;;;16.60;59.30;;;;;;5148585;27;20483;-67
2023/10/09 00:55:56;;;;;;;0.40;0.40;;;16.60;59.50;;;;;;5133982;27;20063;-67
2023/10/09 00:58:14;;;;;;;0.50;0.50;;;16.60;59.80;;;;;;5135608;27;20068;-67
2023/10/09 01:03:13;;;;;;;1.25;0.93;;;16.70;60.40;;;;;;5154645;27;20023;-67
2023/10/09 01:05:51;;;;;;;0.40;0.40;;;16.70;60.30;;;;;;5137836;27;20041;-67
2023/10/09 01:08:25;;;;;;;0.40;0.40;;;16.70;60.40;;;;;;5154408;27;20023;-67
2023/10/09 01:10:53;;;;;;;0.50;0.50;;;16.80;60.20;;;;;;5154383;27;20075;-68
2023/10/09 01:13:18;;;;;;;0.55;0.55;;;16.80;60.40;;;;;;5140856;27;20020;-67
2023/10/09 01:15:45;;;;;;;0.43;0.43;;;16.80;60.60;;;;;;5134405;27;20027;-67
2023/10/09 01:18:12;;;;;;;0.50;0.50;;;16.80;60.90;;;;;;5154161;27;20019;-67
2023/10/09 01:20:41;;;;;;;0.50;0.50;;;16.80;60.90;;;;;;5153977;27;20042;-67
2023/10/09 01:23:10;;;;;;;0.77;0.77;;;16.90;61.00;;;;;;5142073;27;20462;-67
2023/10/09 01:25:44;;;;;;;0.50;0.50;;;17.00;61.00;;;;;;5149630;27;20034;-68
2023/10/09 01:28:09;;;;;;;0.80;0.80;;;17.00;61.10;;;;;;5137394;27;20475;-67
2023/10/09 01:30:41;;;;;;;0.63;0.63;;;17.10;61.10;;;;;;5145799;27;20118;-67
2023/10/09 01:33:17;;;;;;;0.40;0.40;;;17.10;61.20;;;;;;5153771;27;20018;-67
2023/10/09 01:35:47;;;;;;;0.40;0.40;;;17.20;61.30;;;;;;5136653;27;20079;-67
2023/10/09 01:38:15;;;;;;;0.57;0.57;;;17.30;61.50;;;;;;5143981;27;20079;-68
2023/10/09 01:40:40;;;;;;;1.15;1.13;;;17.40;61.70;;;;;;5148385;27;20018;-68
2023/10/09 01:43:09;;;;;;;0.45;0.45;;;17.50;62.00;;;;;;5153925;27;20372;-68
2023/10/09 01:45:42;;;;;;;0.85;0.85;;;17.60;61.80;;;;;;5154038;27;20051;-67
2023/10/09 01:48:08;;;;;;;0.60;0.60;;;17.60;61.60;;;;;;5153384;27;20381;-67
2023/10/09 01:50:36;;;;;;;0.63;0.63;;;17.70;61.50;;;;;;5152043;27;20023;-68
2023/10/09 01:53:02;;;;;;;0.50;0.50;;;17.80;61.40;;;;;;5142015;27;20482;-68
2023/10/09 01:55:35;;;;;;;0.40;0.40;;;17.80;61.40;;;;;;5148034;27;20105;-67
2023/10/09 01:58:05;;;;;;;1.30;0.93;;;17.90;61.50;;;;;;5152425;27;20130;-68
2023/10/09 02:00:43;;;;;;;0.77;0.77;;;18.00;62.00;;;;;;5152547;27;20033;-68
2023/10/09 02:03:12;;;;;;;1.30;1.20;;;18.10;62.50;;;;;;5151781;27;20272;-68
2023/10/09 02:05:39;;;;;;;1.35;1.27;;;18.10;62.70;;;;;;5147854;27;20035;-68
2023/10/09 02:08:05;;;;;;;0.50;0.50;;;18.20;63.40;;;;;;5148787;27;20019;-69
2023/10/09 02:10:32;;;;;;;1.45;1.35;;;18.20;64.10;;;;;;5139553;27;20034;-70
2023/10/09 02:13:06;;;;;;;3.20;1.05;;;18.20;64.90;;;;;;5143457;27;20133;-70
2023/10/09 02:18:39;;;;;;;0.77;0.77;;;18.30;66.20;;;;;;5136595;27;20018;-70
2023/10/09 02:23:46;;;;;;;0.50;0.50;;;18.30;67.10;;;;;;5137531;27;20041;-69
2023/10/09 02:26:26;;;;;;;1.23;1.02;;;18.30;67.40;;;;;;5148367;27;20035;-69
2023/10/09 02:29:15;;;;;;;1.15;0.95;;;18.30;67.60;;;;;;5140376;27;20503;-70
2023/10/09 02:31:44;;;;;;;1.15;1.10;;;18.30;67.80;;;;;;5149236;27;20341;-69
2023/10/09 02:34:10;;;;;;;1.15;1.05;;;18.30;68.00;;;;;;5135534;27;20383;-69
2023/10/09 02:36:42;;;;;;;0.45;0.45;;;18.30;68.20;;;;;;5152461;27;20038;-70
2023/10/09 02:39:22;;;;;;;1.17;1.15;;;18.30;68.40;;;;;;5130561;27;20034;-70
2023/10/09 02:42:06;;;;;;;1.07;1.07;;;18.40;68.50;;;;;;5150049;27;20034;-70
2023/10/09 02:44:40;;;;;;;1.58;1.45;;;18.40;68.60;;;;;;5152717;27;20491;-69
2023/10/09 02:47:11;;;;;;;0.65;0.65;;;18.30;68.60;;;;;;5152914;27;20038;-69
2023/10/09 02:49:39;;;;;;;1.30;1.20;;;18.30;68.60;;;;;;5152390;27;20018;-70
2023/10/09 02:52:07;;;;;;;1.33;1.23;;;18.40;68.80;;;;;;5151544;27;20035;-69
2023/10/09 02:54:41;;;;;;;2.15;1.42;;;18.40;68.90;;;;;;5144600;27;20036;-70
2023/10/09 02:57:07;;;;;;;0.45;0.45;;;18.40;68.90;;;;;;5144404;27;20502;-69
2023/10/09 02:59:34;;;;;;;1.00;0.95;;;18.40;69.00;;;;;;5152093;27;20382;-68
2023/10/09 03:02:00;;;;;;;2.28;2.08;;;18.40;69.10;;;;;;5150830;27;20038;-68
2023/10/09 03:04:30;;;;;;;0.85;0.85;;;18.40;69.10;;;;;;5146094;27;20387;-66
2023/10/09 03:07:05;;;;;;;;;;;18.40;69.20;;;;;;5142967;27;20416;-69
2023/10/09 03:09:32;;;;;;;0.80;0.77;;;18.40;69.20;;;;;;5152247;27;20018;-68
2023/10/09 03:12:02;;;;;;;1.25;1.15;;;18.50;69.20;;;;;;5150775;27;20031;-68
2023/10/09 03:14:29;;;;;;;1.08;1.02;;;18.40;69.50;;;;;;5144645;27;20027;-68
2023/10/09 03:16:58;;;;;;;0.93;0.93;;;18.50;69.60;;;;;;5142981;27;20070;-68
2023/10/09 03:19:28;;;;;;;1.02;1.00;;;18.50;69.60;;;;;;5145446;27;20029;-68
2023/10/09 03:21:54;;;;;;;1.07;0.83;;;18.50;69.60;;;;;;5135359;27;20035;-69
2023/10/09 03:24:22;;;;;;;0.55;0.55;;;18.50;69.50;;;;;;5146695;27;20490;-69
2023/10/09 03:26:49;;;;;;;1.35;1.15;;;18.50;69.40;;;;;;5141007;27;20090;-69
2023/10/09 03:29:14;;;;;;;0.95;0.95;;;18.50;69.40;;;;;;5147246;27;20414;-69
2023/10/09 03:31:42;;;;;;;0.93;0.88;;;18.50;69.30;;;;;;5148771;27;20039;-69
2023/10/09 03:34:10;;;;;;;1.48;1.33;;;18.50;69.40;;;;;;5135210;27;20535;-68
2023/10/09 03:36:39;;;;;;;0.95;0.95;;;18.40;69.40;;;;;;5152124;27;20117;-69
2023/10/09 03:39:33;;;;;;;0.80;0.80;;;18.40;69.40;;;;;;5137737;27;20035;-68
2023/10/09 03:41:58;;;;;;;1.48;1.38;;;18.50;69.40;;;;;;5150494;27;20054;-69
2023/10/09 03:44:28;;;;;;;1.02;1.00;;;18.40;69.40;;;;;;5151479;27;20085;-69
2023/10/09 03:46:54;;;;;;;1.73;1.15;;;18.40;69.30;;;;;;5149768;27;20035;-69
2023/10/09 03:49:23;;;;;;;2.08;1.40;;;18.40;69.30;;;;;;5143292;27;20118;-69
2023/10/09 03:51:49;;;;;;;0.52;0.52;;;18.30;69.30;;;;;;5147965;27;20033;-68
2023/10/09 03:54:15;;;;;;;0.60;0.60;;;18.30;69.30;;;;;;5131084;27;20102;-69
2023/10/09 03:56:42;;;;;;;3.72;1.30;;;18.30;69.30;;;;;;5138676;27;20117;-69
2023/10/09 03:59:10;;;;;;;4.00;1.00;;;18.30;69.30;;;;;;5135094;27;20460;-68
2023/10/09 04:01:39;;;;;;;2.22;1.55;;;18.30;69.40;;;;;;5147131;27;20036;-68
2023/10/09 04:04:07;;;;;;;0.65;0.65;;;18.30;69.50;;;;;;5142618;27;20019;-69
2023/10/09 04:06:33;;;;;;;0.98;0.98;;;18.30;69.70;;;;;;5144686;27;20165;-68
2023/10/09 04:09:13;;;;;;;0.80;0.80;;;18.30;69.80;;;;;;5152895;27;20422;-69
2023/10/09 04:11:42;;;;;;;1.47;1.37;;;18.30;69.70;;;;;;5154770;27;20065;-67
2023/10/09 04:14:12;;;;;;;1.65;1.27;;;18.40;69.80;;;;;;5147225;27;20502;-67
2023/10/09 04:16:51;;;;;;;1.50;1.40;;;18.40;69.80;;;;;;5150973;27;20050;-67
2023/10/09 04:19:21;;;;;;;1.85;1.63;;;18.40;69.90;;;;;;5150635;27;20075;-67
2023/10/09 04:21:55;;;;;;;0.52;0.52;;;18.40;69.90;;;;;;5153757;27;20033;-67
2023/10/09 04:26:46;;;;;;;0.60;0.60;;;18.50;70.10;;;;;;5155294;27;20065;-68
2023/10/09 04:29:26;;;;;;;0.70;0.70;;;18.50;70.10;;;;;;5145965;27;20083;-68
2023/10/09 04:31:56;;;;;;;1.75;0.85;;;18.60;70.10;;;;;;5142988;27;20080;-68
2023/10/09 04:34:48;;;;;;;1.63;1.20;;;18.50;70.10;;;;;;5154078;27;20452;-68
2023/10/09 04:39:47;;;;;;;2.30;2.10;;;18.60;70.10;;;;;;5146197;27;20019;-69
2023/10/09 04:47:49;;;;;;;1.00;0.98;;;18.70;70.30;;;;;;5147060;27;20052;-68
2023/10/09 05:03:11;;;;;;;0.85;0.85;;;18.90;70.20;;;;;;5154673;27;20026;-68
2023/10/09 05:08:19;;;;;;;0.65;0.65;;;18.90;70.30;;;;;;5151365;27;20019;-67
2023/10/09 05:13:57;;;;;;;1.65;1.55;;;18.90;70.30;;;;;;5154082;27;20049;-67
2023/10/09 05:16:18;;;;;;;1.13;1.10;;;18.90;70.30;;;;;;5146857;27;20035;-67
2023/10/09 05:18:55;;;;;;;2.30;1.25;;;19.00;70.40;;;;;;5153993;27;20027;-68
2023/10/09 05:32:15;;;;;;;0.60;0.60;;;19.10;70.60;;;;;;5152791;27;20026;-69
2023/10/09 05:37:33;;;;;;;1.15;1.05;;;19.10;70.60;;;;;;5146800;27;20142;-67
2023/10/09 05:42:43;;;;;;;1.27;1.20;;;19.10;70.50;;;;;;5147686;27;20027;-67
2023/10/09 05:47:58;;;;;;;1.00;0.88;;;19.20;70.40;;;;;;5141125;27;20045;-68
2023/10/09 06:08:47;;;;;;;1.20;1.13;;;19.30;70.80;;;;;;5150843;27;20110;-68
2023/10/09 06:14:14;;;;;;;3.75;1.58;;;19.50;70.90;;;;;;5146458;27;20082;-68
2023/10/09 06:16:41;;;;;;;0.80;0.80;;;19.50;70.90;;;;;;5141370;27;20047;-68
2023/10/09 06:24:33;;;;;;;1.98;1.52;;;19.70;71.00;;;;;;5147971;27;20504;-67
2023/10/09 06:34:57;;;;;;;1.50;1.40;;;19.80;70.90;;;;;;5145872;27;20506;-70
2023/10/09 06:42:33;;;;;;;2.10;1.70;;;19.80;70.70;;;;;;5144367;27;20531;-70
2023/10/09 06:47:41;;;;;;;1.55;1.42;;;19.80;70.60;;;;;;5150680;27;20034;-70
2023/10/09 06:52:57;;;;;;;1.40;1.30;;;19.80;70.70;;;;;;5149023;27;20019;-70
2023/10/09 06:55:33;;;;;;;0.60;0.60;;;19.80;70.60;;;;;;5144345;27;20464;-69
2023/10/09 06:58:01;;;;;;;1.33;1.23;;;19.80;70.80;;;;;;5144689;27;20511;-70
2023/10/09 07:03:12;;;;;;;3.13;2.03;;;19.80;70.50;;;;;;5145773;27;20079;-70
2023/10/09 07:08:31;;;;;;;1.38;1.27;;;19.70;70.50;;;;;;5137390;27;20034;-70
2023/10/09 07:11:20;;;;;;;2.30;1.50;;;19.70;70.80;;;;;;5145416;27;20030;-70
2023/10/09 07:13:54;;;;;;;0.88;0.88;;;19.70;70.90;;;;;;5147648;27;20122;-69
2023/10/09 07:16:38;;;;;;;1.30;1.20;;;19.70;70.80;;;;;;5148013;27;20409;-70
2023/10/09 07:19:09;;;;;;;0.77;0.77;;;19.80;71.00;;;;;;5150063;27;20030;-70
2023/10/09 07:21:38;;;;;;;1.45;1.35;;;19.80;70.90;;;;;;5145008;27;20410;-70
2023/10/09 07:24:14;;;;;;;1.10;1.05;;;19.80;71.10;;;;;;5150637;27;20050;-70
2023/10/09 07:26:47;;;;;;;0.88;0.88;;;19.80;71.00;;;;;;5144294;27;20027;-70
2023/10/09 07:29:16;;;;;;;1.23;1.13;;;19.80;70.90;;;;;;5149803;27;20038;-70
2023/10/09 07:31:45;;;;;;;1.88;1.70;;;19.90;71.00;;;;;;5150520;27;20034;-70
2023/10/09 07:36:56;;;;;;;1.77;1.67;;;19.90;70.90;;;;;;5145322;27;20034;-70
2023/10/09 07:39:22;;;;;;;1.50;1.40;;;19.90;71.00;;;;;;5140491;27;20037;-70
2023/10/09 07:42:14;;;;;;;1.02;1.02;;;19.90;71.10;;;;;;5136773;27;20403;-70
2023/10/09 07:44:42;;;;;;;1.77;1.50;;;20.00;70.90;;;;;;5151100;27;20030;-70
2023/10/09 07:47:17;;;;;;;3.20;1.55;;;20.00;71.00;;;;;;5151454;27;20075;-70
2023/10/09 07:49:48;;;;;;;1.17;1.08;;;20.00;71.00;;;;;;5154159;27;20095;-68
2023/10/09 07:52:14;;;;;;;1.25;1.15;;;20.00;71.10;;;;;;5151153;27;21314;-68
2023/10/09 07:54:49;;;;;;;2.03;1.85;;;20.10;71.30;;;;;;5155208;27;20034;-68
2023/10/09 07:57:16;;;;;;;0.50;0.50;;;20.10;71.20;;;;;;5148949;27;20030;-68
2023/10/09 07:59:54;;;;;;;1.02;1.02;;;20.10;71.00;;;;;;5151779;27;20014;-68
2023/10/09 08:02:32;;;;;;;0.50;0.50;;;20.10;70.90;;;;;;5148087;27;20043;-69
2023/10/09 08:07:57;;;;;;;2.17;1.73;;;20.10;71.00;;;;;;5148787;27;20111;-68
2023/10/09 08:17:53;;;;;;;0.98;0.90;;;20.20;71.10;;;;;;5152956;27;20519;-70
2023/10/09 08:20:36;;;;;;;1.70;1.35;;;20.20;71.10;;;;;;5150695;27;20523;-68
2023/10/09 08:23:04;;;;;;;1.92;1.60;;;20.20;71.10;;;;;;5142316;27;20494;-68
2023/10/09 08:25:34;;;;;;;0.80;0.80;;;20.30;70.90;;;;;;5147631;27;20045;-69
2023/10/09 08:36:01;;;;;;;0.88;0.70;;;20.40;71.10;;;;;;5154791;27;20063;-68
2023/10/09 08:38:30;;;;;;;1.63;1.52;;;20.40;71.20;;;;;;5145348;27;20519;-69
2023/10/09 08:40:58;;;;;;;1.13;1.02;;;20.40;71.10;;;;;;5152133;27;20118;-69
2023/10/09 08:43:23;;;;;;;1.48;1.38;;;20.40;71.10;;;;;;5146300;27;20414;-68
2023/10/09 08:46:02;;;;;;;1.88;1.65;;;20.40;71.00;;;;;;5154415;27;20053;-69
2023/10/09 08:48:29;;;;;;;1.45;1.35;;;20.40;70.70;;;;;;5152985;27;20031;-68
2023/10/09 08:50:56;;;;;;;1.88;1.35;;;20.30;70.70;;;;;;5152761;27;20134;-76
2023/10/09 08:53:28;;;;;;;3.92;2.45;;;20.30;70.70;;;;;;5147854;27;20319;-74
2023/10/09 08:55:55;;;;;;;0.75;0.75;;;20.30;70.90;;;;;;5152160;27;20171;-73
2023/10/09 08:58:24;;;;;;;3.67;1.85;;;20.30;71.00;;;;;;5139012;27;20018;-73
2023/10/09 09:00:51;;;;;;;1.02;0.95;;;20.30;71.20;;;;;;5152799;27;20050;-73
2023/10/09 09:03:18;;;;;;;1.92;1.77;;;20.30;71.20;;;;;;5141030;27;20024;-73
2023/10/09 09:05:51;;;;;;;3.42;1.85;;;20.30;71.40;;;;;;5135718;27;20056;-72
2023/10/09 09:08:28;;;;;;;1.40;1.30;;;20.30;71.40;;;;;;5135383;27;20065;-73
2023/10/09 09:11:16;;;;;;;0.80;0.80;;;20.30;71.50;;;;;;5154272;27;20042;-74
2023/10/09 09:14:06;;;;;;;1.30;1.25;;;20.40;71.50;;;;;;5153510;27;20037;-71
2023/10/09 09:16:35;;;;;;;2.70;1.10;;;20.40;71.60;;;;;;5140302;27;20034;-74
2023/10/09 09:21:38;;;;;;;2.58;1.98;;;20.40;71.60;;;;;;5154179;27;20475;-74
2023/10/09 09:25:00;;;;;;;8.30;1.65;;;20.40;71.70;;;;;;5150421;27;20040;-74
2023/10/09 09:27:09;;;;;;;1.25;1.15;;;20.40;71.80;;;;;;5141596;27;20072;-76
2023/10/09 09:29:38;;;;;;;0.82;0.82;;;20.40;71.80;;;;;;5153614;27;20101;-77
2023/10/09 09:32:18;;;;;;;2.30;2.08;;;20.50;71.90;;;;;;5147381;27;20035;-75
2023/10/09 09:35:04;;;;;;;1.25;1.15;;;20.50;72.30;;;;;;5141488;27;20023;-74
2023/10/09 09:40:15;;;;;;;0.65;0.65;;;20.70;72.30;;;;;;5135822;27;20031;-76
2023/10/09 09:42:48;;;;;;;0.90;0.90;;;20.70;72.30;;;;;;5140979;27;20439;-76
2023/10/09 09:45:14;;;;;;;1.83;1.70;;;20.70;72.30;;;;;;5152118;27;20031;-76
2023/10/09 09:47:46;;;;;;;1.30;0.70;;;20.70;72.10;;;;;;5137209;27;20492;-77
2023/10/09 09:50:22;;;;;;;3.30;1.73;;;20.70;72.10;;;;;;5136998;27;20376;-77
2023/10/09 09:52:49;;;;;;;0.90;0.90;;;20.70;72.30;;;;;;5151207;27;20076;-75
2023/10/09 09:55:18;;;;;;;1.95;1.52;;;20.70;72.40;;;;;;5145682;27;20464;-75
2023/10/09 09:57:51;;;;;;;0.80;0.80;;;20.80;72.50;;;;;;5153474;27;20364;-75
2023/10/09 10:00:55;;;;;;;1.73;1.02;;;20.80;72.60;;;;;;5153007;27;20023;-70
2023/10/09 10:03:22;;;;;;;0.52;0.52;;;20.80;72.50;;;;;;5147646;27;20069;-69
2023/10/09 10:05:50;;;;;;;0.68;0.68;;;20.90;72.70;;;;;;5151498;27;20038;-71
2023/10/09 10:08:20;;;;;;;0.40;0.40;;;20.90;72.70;;;;;;5141908;27;20027;-69
2023/10/09 10:13:44;;;;;;;0.82;0.82;;;21.00;72.80;;;;;;5143927;27;20387;-70
2023/10/09 10:16:13;;;;;;;0.50;0.50;;;21.00;72.60;;;;;;5136123;27;20368;-69
2023/10/09 10:19:21;;;;;;;1.10;1.05;;;21.10;72.40;;;;;;5152588;27;20057;-70
2023/10/09 10:21:52;;;;;;;0.98;0.98;;;21.10;72.50;;;;;;5135604;27;20028;-68
2023/10/09 10:24:28;;;;;;;0.57;0.57;;;21.10;72.60;;;;;;5152764;27;20056;-69
2023/10/09 10:27:24;;;;;;;0.52;0.52;;;21.10;72.90;;;;;;5150879;27;20103;-68
2023/10/09 10:30:12;;;;;;;1.65;1.17;;;21.20;73.00;;;;;;5146045;27;20016;-69
2023/10/09 10:33:09;;;;;;;0.68;0.68;;;21.30;72.90;;;;;;5143498;27;20062;-67
2023/10/09 10:35:45;;;;;;;1.25;1.15;;;21.40;73.10;;;;;;5147844;27;20026;-69
2023/10/09 10:38:42;;;;;;;0.93;0.93;;;21.40;72.90;;;;;;5145222;27;20027;-67
2023/10/09 10:41:13;;;;;;;0.73;0.70;;;21.50;73.10;;;;;;5140315;27;20015;-68
2023/10/09 10:43:54;;;;;;;;;;;21.60;73.10;;;;;;5148803;27;20031;-68
2023/10/09 10:46:24;;;;;;;0.98;0.98;;;21.70;73.20;;;;;;5139611;27;20276;-69
2023/10/09 10:49:16;;;;;;;1.10;1.00;;;21.80;73.30;;;;;;5140933;27;20487;-68
2023/10/09 10:51:48;;;;;;;1.85;1.30;;;21.80;73.30;;;;;;5151015;27;20467;-69
2023/10/09 10:54:28;;;;;;;0.52;0.52;;;22.00;72.90;;;;;;5136063;27;20482;-68
2023/10/09 10:56:57;;;;;;;0.40;0.40;;;22.00;72.40;;;;;;5147677;27;20471;-68
2023/10/09 10:59:24;;;;;;;0.60;0.60;;;22.00;72.30;;;;;;5152053;27;20498;-68
2023/10/09 11:01:53;;;;;;;1.55;1.45;;;21.90;72.00;;;;;;5143314;27;20154;-68
2023/10/09 11:07:00;;;;;;;0.93;0.65;;;21.70;71.90;;;;;;5140450;27;20027;-69
2023/10/09 11:09:35;;;;;;;0.82;0.82;;;21.60;72.10;;;;;;5146306;27;20102;-75
2023/10/09 11:12:22;;;;;;;1.27;0.85;;;21.50;71.90;;;;;;5150814;27;20432;-76
2023/10/09 11:15:08;;;;;;;1.58;0.90;;;21.40;71.60;;;;;;5141469;27;20373;-76
2023/10/09 11:17:35;;;;;;;1.63;1.45;;;21.30;71.60;;;;;;5135117;27;20468;-76
2023/10/09 11:20:24;;;;;;;0.95;0.95;;;21.10;71.40;;;;;;5152219;27;20554;-76
2023/10/09 11:23:14;;;;;;;1.08;1.02;;;20.90;71.40;;;;;;5152565;27;20044;-74
2023/10/09 11:25:52;;;;;;;1.05;0.60;;;20.80;71.90;;;;;;5152279;27;20113;-75
2023/10/09 11:28:42;;;;;;;0.75;0.75;;;20.70;72.40;;;;;;5135024;27;20507;-74
2023/10/09 11:31:17;;;;;;;0.65;0.65;;;20.70;72.70;;;;;;5148787;27;20020;-75
2023/10/09 11:33:48;;;;;;;0.73;0.73;;;20.70;72.90;;;;;;5146832;27;20045;-74
2023/10/09 11:36:15;;;;;;;1.05;0.95;;;20.70;73.10;;;;;;5135677;27;20105;-74
2023/10/09 11:38:45;;;;;;;0.40;0.40;;;20.70;73.00;;;;;;5145427;27;20026;-75
2023/10/09 11:41:19;;;;;;;0.67;0.67;;;20.70;73.10;;;;;;5139631;27;20020;-75
2023/10/09 11:43:53;;;;;;;0.47;0.47;;;20.70;73.10;;;;;;5151886;27;20280;-74
2023/10/09 11:54:49;;;;;;;0.55;0.55;;;20.90;73.80;;;;;;5105846;28;20038;-74
2023/10/09 11:57:16;;;;;;;0.55;0.55;;;20.90;73.80;;;;;;5137838;27;20030;-74
2023/10/09 11:59:43;;;;;;;0.50;0.50;;;21.00;73.70;;;;;;5151690;27;20390;-75
2023/10/09 12:02:12;;;;;;;0.85;0.73;;;21.00;73.60;;;;;;5139656;27;20023;-75
2023/10/09 12:04:41;;;;;;;0.40;0.40;;;21.00;73.60;;;;;;5143736;27;20056;-75
2023/10/09 12:07:08;;;;;;;0.70;0.70;;;21.10;73.40;;;;;;5148578;27;20392;-74
2023/10/09 12:09:34;;;;;;;0.85;0.85;;;21.10;73.50;;;;;;5146928;27;20023;-75
2023/10/09 12:12:04;;;;;;;1.63;1.33;;;21.10;73.50;;;;;;5146087;27;20035;-74
2023/10/09 12:14:37;;;;;;;0.60;0.60;;;21.20;73.80;;;;;;5151818;27;20018;-74
2023/10/09 12:17:07;;;;;;;1.67;1.13;;;21.30;73.90;;;;;;5148818;27;20392;-74
2023/10/09 12:19:34;;;;;;;0.67;0.67;;;21.40;73.90;;;;;;5151475;27;20018;-69
2023/10/09 12:22:00;;;;;;;0.88;0.88;;;21.50;73.70;;;;;;5151764;27;20027;-69
2023/10/09 12:24:29;;;;;;;0.95;0.95;;;21.60;73.90;;;;;;5154195;27;20065;-69
2023/10/09 12:26:55;;;;;;;0.50;0.50;;;21.70;73.90;;;;;;5153196;27;20417;-68
2023/10/09 12:29:20;;;;;;;0.82;0.82;;;21.80;73.80;;;;;;5153123;27;20054;-69
2023/10/09 12:31:46;;;;;;;2.05;1.08;;;21.90;73.70;;;;;;5154676;27;20084;-69
2023/10/09 12:34:16;;;;;;;0.52;0.52;;;22.00;73.40;;;;;;5138449;27;20305;-69
2023/10/09 12:36:49;;;;;;;1.05;1.02;;;22.10;73.40;;;;;;5151495;27;20023;-69
2023/10/09 12:39:18;;;;;;;0.70;0.70;;;22.20;73.60;;;;;;5154785;27;20015;-69
2023/10/09 12:41:44;;;;;;;0.68;0.68;;;22.30;73.20;;;;;;5137598;27;20408;-69
2023/10/09 12:44:19;;;;;;;0.60;0.60;;;22.40;73.20;;;;;;5152726;27;20441;-69
2023/10/09 12:46:52;;;;;;;0.50;0.50;;;22.50;73.00;;;;;;5152649;27;20079;-68
2023/10/09 12:49:25;;;;;;;1.90;1.27;;;22.60;73.00;;;;;;5154582;27;20071;-68
2023/10/09 12:51:54;;;;;;;0.95;0.88;;;22.70;72.90;;;;;;5146544;27;20076;-68
2023/10/09 12:54:20;;;;;;;1.00;0.98;;;22.80;72.50;;;;;;5154343;27;20069;-69
2023/10/09 12:56:48;;;;;;;1.05;0.95;;;22.80;72.50;;;;;;5145279;27;20051;-68
2023/10/09 12:59:14;;;;;;;1.08;1.05;;;22.90;72.50;;;;;;5152678;27;20011;-69
2023/10/09 13:01:43;;;;;;;1.27;1.05;;;22.90;72.40;;;;;;5143014;27;20030;-69
2023/10/09 13:04:15;;;;;;;0.60;0.60;;;22.90;72.30;;;;;;5137288;27;20023;-69
2023/10/09 13:06:44;;;;;;;0.50;0.50;;;22.80;72.30;;;;;;5145598;27;20087;-69
2023/10/09 13:09:15;;;;;;;0.65;0.65;;;22.80;72.40;;;;;;5152888;27;20117;-69
2023/10/09 13:11:41;;;;;;;1.02;0.93;;;22.80;72.30;;;;;;5154242;27;20026;-69
2023/10/09 13:14:21;;;;;;;2.85;2.05;;;22.80;72.30;;;;;;5152339;27;20049;-70
2023/10/09 13:16:50;;;;;;;0.50;0.50;;;22.80;72.30;;;;;;5153983;27;20030;-69
2023/10/09 13:19:17;;;;;;;0.55;0.55;;;22.70;72.00;;;;;;5151879;27;20075;-69
2023/10/09 13:21:43;;;;;;;0.73;0.73;;;22.70;72.10;;;;;;5146007;27;20035;-68
2023/10/09 13:24:13;;;;;;;0.45;0.45;;;22.60;72.20;;;;;;5135911;27;20023;-69
2023/10/09 13:26:51;;;;;;;0.60;0.60;;;22.50;72.30;;;;;;5141154;27;20062;-69
2023/10/09 13:29:22;;;;;;;1.45;0.88;;;22.50;72.30;;;;;;5153939;27;20058;-77
2023/10/09 13:31:50;;;;;;;1.58;1.20;;;22.50;72.40;;;;;;5149651;27;20406;-76
2023/10/09 13:34:15;;;;;;;0.40;0.40;;;22.50;72.30;;;;;;5150924;27;20440;-76
2023/10/09 13:36:53;;;;;;;0.60;0.60;;;22.40;72.40;;;;;;5152149;27;20054;-76
2023/10/09 13:39:26;;;;;;;0.52;0.52;;;22.50;72.40;;;;;;5144859;27;20033;-75
2023/10/09 13:41:59;;;;;;;0.80;0.80;;;22.50;72.60;;;;;;5145374;27;20031;-73
2023/10/09 13:44:28;;;;;;;0.50;0.50;;;22.50;72.60;;;;;;5151969;27;20544;-75
2023/10/09 13:47:08;;;;;;;0.50;0.50;;;22.50;72.50;;;;;;5143300;27;20142;-74
2023/10/09 13:49:37;;;;;;;1.13;0.90;;;22.40;72.40;;;;;;5148632;27;20023;-75
2023/10/09 13:52:02;;;;;;;0.55;0.55;;;22.40;72.40;;;;;;5149680;27;20108;-75
2023/10/09 13:56:57;;;;;;;0.50;0.50;;;22.40;72.50;;;;;;5149718;27;20053;-75
2023/10/09 13:59:25;;;;;;;0.68;0.68;;;22.50;72.70;;;;;;5151599;27;20062;-75
2023/10/09 14:01:54;;;;;;;0.65;0.65;;;22.50;72.60;;;;;;5153213;27;20368;-75
2023/10/09 14:04:21;;;;;;;0.65;0.65;;;22.40;72.50;;;;;;5150003;27;20027;-75
2023/10/09 14:06:47;;;;;;;2.70;1.02;;;22.40;72.40;;;;;;5152137;27;20079;-75
2023/10/09 14:09:27;;;;;;;0.50;0.50;;;22.40;72.30;;;;;;5152104;27;20090;-75
2023/10/09 14:12:06;;;;;;;;;;;22.40;72.40;;;;;;5151769;27;20018;-74
2023/10/09 14:14:49;;;;;;;0.60;0.60;;;22.40;72.40;;;;;;5151227;27;19970;-75
2023/10/09 14:17:18;;;;;;;0.70;0.70;;;22.30;72.30;;;;;;5139063;27;20031;-74
2023/10/09 14:19:47;;;;;;;0.40;0.40;;;22.30;72.40;;;;;;5146744;27;20038;-74
2023/10/09 14:22:17;;;;;;;0.70;0.70;;;22.20;72.70;;;;;;5152846;27;20037;-75
2023/10/09 14:24:46;;;;;;;0.97;0.87;;;22.30;72.90;;;;;;5150615;27;20479;-75
2023/10/09 14:27:19;;;;;;;0.70;0.70;;;22.20;72.80;;;;;;5140802;27;20088;-75
2023/10/09 14:29:48;;;;;;;0.50;0.50;;;22.30;72.90;;;;;;5149406;27;20041;-72
2023/10/09 14:32:14;;;;;;;2.53;0.63;;;22.30;73.20;;;;;;5147606;27;20041;-74
2023/10/09 14:34:49;;;;;;;0.55;0.55;;;22.30;73.20;;;;;;5144397;27;20035;-73
2023/10/09 14:37:15;;;;;;;0.70;0.70;;;22.50;73.30;;;;;;5135748;27;20027;-73
2023/10/09 14:39:42;;;;;;;0.52;0.52;;;22.70;73.50;;;;;;5149235;27;20094;-67
2023/10/09 14:42:11;;;;;;;0.60;0.60;;;22.80;73.50;;;;;;5151405;27;20130;-67
2023/10/09 14:44:38;;;;;;;0.50;0.50;;;23.00;73.30;;;;;;5141208;27;20060;-67
2023/10/09 14:47:05;;;;;;;0.73;0.73;;;23.10;73.40;;;;;;5148774;27;20083;-67
2023/10/09 14:49:43;;;;;;;1.45;1.35;;;23.20;73.40;;;;;;5151639;27;20633;-67
2023/10/09 14:52:09;;;;;;;0.70;0.70;;;23.30;73.30;;;;;;5135504;27;20473;-68
2023/10/09 14:54:35;;;;;;;0.85;0.85;;;23.30;73.20;;;;;;5150473;27;20498;-68
2023/10/09 14:57:05;;;;;;;0.55;0.55;;;23.50;73.30;;;;;;5142598;27;20102;-68
2023/10/09 14:59:31;;;;;;;0.40;0.40;;;23.50;73.20;;;;;;5131952;27;20019;-67
2023/10/09 15:01:58;;;;;;;0.40;0.40;;;23.70;73.00;;;;;;5143293;27;20050;-70
2023/10/09 15:04:25;;;;;;;0.80;0.80;;;23.80;73.00;;;;;;5151920;27;20457;-67
2023/10/09 15:06:51;;;;;;;0.82;0.82;;;23.70;72.70;;;;;;5142331;27;20452;-67
2023/10/09 15:09:23;;;;;;;0.60;0.60;;;23.80;72.30;;;;;;5143895;27;20432;-67
2023/10/09 15:11:52;;;;;;;3.42;1.35;;;23.80;72.50;;;;;;5146024;27;20388;-68
2023/10/09 15:14:20;;;;;;;0.60;0.60;;;23.80;72.60;;;;;;5151956;27;20058;-68
2023/10/09 15:16:47;;;;;;;0.57;0.57;;;23.80;72.60;;;;;;5143584;27;20023;-68
2023/10/09 15:19:13;;;;;;;0.73;0.73;;;23.80;72.70;;;;;;5143925;27;20468;-68
2023/10/09 15:21:50;;;;;;;0.80;0.80;;;23.90;72.60;;;;;;5149907;27;20031;-68
2023/10/09 15:24:19;;;;;;;0.70;0.70;;;23.90;72.60;;;;;;5135916;27;20027;-69
2023/10/09 15:26:57;;;;;;;0.60;0.60;;;23.90;72.60;;;;;;5143022;27;20027;-69
2023/10/09 15:29:32;;;;;;;1.80;1.08;;;24.00;72.40;;;;;;5150106;27;20041;-68
2023/10/09 15:32:14;;;;;;;0.50;0.50;;;24.00;72.30;;;;;;5152115;27;20031;-68
2023/10/09 15:34:41;;;;;;;0.75;0.75;;;24.00;72.30;;;;;;5150692;27;20420;-68
2023/10/09 15:37:09;;;;;;;0.55;0.55;;;24.00;72.30;;;;;;5146920;27;20023;-68
2023/10/09 15:39:36;;;;;;;0.60;0.60;;;23.90;72.20;;;;;;5151535;27;20498;-70
2023/10/09 15:42:06;;;;;;;0.63;0.63;;;23.80;72.10;;;;;;5151852;27;20027;-68
2023/10/09 15:44:36;;;;;;;3.30;1.58;;;23.80;71.80;;;;;;5149839;27;20418;-67